createdAt,value
2017-11-30T00:00:52.708Z,0
2017-11-30T00:02:02.999Z,0
2017-11-30T00:03:12.751Z,0
2017-11-30T00:04:22.776Z,0
2017-11-30T00:05:34.611Z,0
2017-11-30T00:06:44.936Z,0
2017-11-30T00:07:55.002Z,0
2017-11-30T00:09:04.980Z,0
2017-11-30T00:10:15.377Z,0
2017-11-30T00:11:25.685Z,0
2017-11-30T00:12:36.412Z,0
2017-11-30T00:13:46.986Z,0
2017-11-30T00:14:57.788Z,0
2017-11-30T00:16:08.083Z,0
2017-11-30T00:17:21.623Z,0
2017-11-30T00:18:32.386Z,0
2017-11-30T00:19:42.686Z,0
2017-11-30T00:20:52.990Z,0
2017-11-30T00:22:03.600Z,0
2017-11-30T00:23:13.611Z,0
2017-11-30T00:24:24.197Z,0
2017-11-30T00:25:36.176Z,0
2017-11-30T00:26:46.203Z,0
2017-11-30T00:27:56.989Z,0
2017-11-30T00:29:07.504Z,0
2017-11-30T00:30:17.633Z,0
2017-11-30T00:31:27.992Z,0
2017-11-30T00:32:38.808Z,0
2017-11-30T00:33:49.326Z,0
2017-11-30T00:34:59.480Z,0
2017-11-30T00:36:09.339Z,0
2017-11-30T00:37:19.719Z,0
2017-11-30T00:38:30.495Z,0
2017-11-30T00:39:40.536Z,0
2017-11-30T00:40:50.888Z,0
2017-11-30T00:42:01.668Z,0
2017-11-30T00:43:11.958Z,0
2017-11-30T00:44:22.067Z,0
2017-11-30T00:45:31.818Z,0
2017-11-30T00:46:42.134Z,0
2017-11-30T00:47:52.648Z,0
2017-11-30T00:49:03.047Z,0
2017-11-30T00:50:13.086Z,0
2017-11-30T00:51:23.402Z,0
2017-11-30T00:52:33.702Z,0
2017-11-30T00:53:44.113Z,0
2017-11-30T00:54:55.100Z,0
2017-11-30T00:56:05.837Z,0
2017-11-30T00:57:16.157Z,0
2017-11-30T00:58:26.923Z,0
2017-11-30T00:59:36.615Z,0
2017-11-30T01:00:47.192Z,0
2017-11-30T01:01:56.731Z,0
2017-11-30T01:03:07.081Z,0
2017-11-30T01:04:17.871Z,0
2017-11-30T01:05:28.495Z,0
2017-11-30T01:06:39.031Z,0
2017-11-30T01:07:49.380Z,0
2017-11-30T01:08:59.906Z,0
2017-11-30T01:10:10.498Z,0
2017-11-30T01:11:21.410Z,0
2017-11-30T01:12:32.370Z,0
2017-11-30T01:13:42.379Z,0
2017-11-30T01:14:52.920Z,0
2017-11-30T01:16:03.324Z,0
2017-11-30T01:17:13.317Z,0
2017-11-30T01:18:23.671Z,0
2017-11-30T01:19:34.551Z,0
2017-11-30T01:20:44.829Z,0
2017-11-30T01:21:55.489Z,0
2017-11-30T01:23:05.814Z,0
2017-11-30T01:24:17.185Z,0
2017-11-30T01:25:27.836Z,0
2017-11-30T01:26:38.509Z,0
2017-11-30T01:27:48.799Z,0
2017-11-30T01:28:59.353Z,0
2017-11-30T01:30:09.687Z,0
2017-11-30T01:31:20.598Z,0
2017-11-30T01:32:31.145Z,0
2017-11-30T01:33:40.885Z,0
2017-11-30T01:34:51.097Z,0
2017-11-30T01:36:01.519Z,0
2017-11-30T01:37:11.444Z,0
2017-11-30T01:38:21.739Z,0
2017-11-30T01:39:32.038Z,0
2017-11-30T01:40:42.326Z,0
2017-11-30T01:41:52.659Z,0
2017-11-30T01:43:02.660Z,0
2017-11-30T01:44:13.151Z,0
2017-11-30T01:45:23.220Z,0
2017-11-30T01:46:33.614Z,0
2017-11-30T01:47:44.355Z,0
2017-11-30T01:48:54.805Z,0
2017-11-30T01:50:05.268Z,0
2017-11-30T01:51:15.621Z,0
2017-11-30T01:52:25.880Z,0
2017-11-30T01:53:36.814Z,0
2017-11-30T01:54:47.962Z,0
2017-11-30T01:55:58.689Z,0
2017-11-30T01:57:09.617Z,0
2017-11-30T01:58:20.220Z,0
2017-11-30T01:59:30.231Z,0
2017-11-30T02:00:40.989Z,0
2017-11-30T02:01:51.498Z,0
2017-11-30T02:03:02.126Z,0
2017-11-30T02:04:12.393Z,0
2017-11-30T02:05:22.617Z,0
2017-11-30T02:06:33.506Z,0
2017-11-30T02:07:44.026Z,0
2017-11-30T02:08:54.776Z,0
2017-11-30T02:10:05.589Z,0
2017-11-30T02:11:16.820Z,0
2017-11-30T02:12:26.677Z,0
2017-11-30T02:13:37.313Z,0
2017-11-30T02:14:47.176Z,0
2017-11-30T02:15:57.505Z,0
2017-11-30T02:17:07.786Z,0
2017-11-30T02:18:18.342Z,0
2017-11-30T02:19:28.645Z,0
2017-11-30T02:20:38.814Z,0
2017-11-30T02:21:49.101Z,0
2017-11-30T02:22:59.631Z,0
2017-11-30T02:24:10.112Z,0
2017-11-30T02:25:20.375Z,0
2017-11-30T02:26:30.793Z,0
2017-11-30T02:27:40.850Z,0
2017-11-30T02:28:51.219Z,0
2017-11-30T02:30:01.335Z,0
2017-11-30T02:31:11.756Z,0
2017-11-30T02:32:22.032Z,0
2017-11-30T02:33:32.345Z,0
2017-11-30T02:34:43.346Z,0
2017-11-30T02:35:55.306Z,0
2017-11-30T02:37:05.951Z,0
2017-11-30T02:38:16.658Z,0
2017-11-30T02:39:26.537Z,0
2017-11-30T02:40:37.117Z,0
2017-11-30T02:41:47.705Z,0
2017-11-30T02:42:57.734Z,0
2017-11-30T02:44:08.507Z,0
2017-11-30T02:45:19.080Z,0
2017-11-30T02:46:29.617Z,0
2017-11-30T02:47:40.157Z,0
2017-11-30T02:48:50.285Z,0
2017-11-30T02:50:00.619Z,0
2017-11-30T02:51:11.027Z,0
2017-11-30T02:52:21.343Z,0
2017-11-30T02:53:31.877Z,0
2017-11-30T02:54:42.637Z,0
2017-11-30T02:55:52.979Z,0
2017-11-30T02:57:03.725Z,0
2017-11-30T02:58:14.051Z,0
2017-11-30T02:59:24.042Z,0
2017-11-30T03:00:34.652Z,0
2017-11-30T03:01:44.776Z,0
2017-11-30T03:02:55.250Z,0
2017-11-30T03:04:05.501Z,0
2017-11-30T03:05:16.028Z,0
2017-11-30T03:06:26.714Z,0
2017-11-30T03:07:37.450Z,0
2017-11-30T03:08:47.475Z,0
2017-11-30T03:09:57.618Z,0
2017-11-30T03:11:09.086Z,0
2017-11-30T03:12:19.390Z,0
2017-11-30T03:13:29.660Z,0
2017-11-30T03:14:40.129Z,0
2017-11-30T03:15:50.418Z,0
2017-11-30T03:17:01.245Z,0
2017-11-30T03:18:12.157Z,0
2017-11-30T03:19:23.119Z,0
2017-11-30T03:20:33.366Z,0
2017-11-30T03:21:43.645Z,0
2017-11-30T03:22:53.731Z,0
2017-11-30T03:24:03.755Z,0
2017-11-30T03:25:14.136Z,0
2017-11-30T03:26:24.087Z,0
2017-11-30T03:27:34.126Z,0
2017-11-30T03:28:44.345Z,0
2017-11-30T03:29:54.629Z,0
2017-11-30T03:31:05.216Z,0
2017-11-30T03:32:16.305Z,0
2017-11-30T03:33:26.771Z,0
2017-11-30T03:34:37.054Z,0
2017-11-30T03:35:47.117Z,0
2017-11-30T03:36:57.430Z,0
2017-11-30T03:38:07.883Z,0
2017-11-30T03:39:20.265Z,0
2017-11-30T03:40:31.186Z,0
2017-11-30T03:41:41.806Z,0
2017-11-30T03:42:52.296Z,0
2017-11-30T03:44:02.670Z,0
2017-11-30T03:45:12.943Z,0
2017-11-30T03:46:23.249Z,0
2017-11-30T03:47:33.556Z,0
2017-11-30T03:48:43.866Z,0
2017-11-30T03:49:54.799Z,0
2017-11-30T03:51:05.079Z,0
2017-11-30T03:52:15.703Z,0
2017-11-30T03:53:25.969Z,0
2017-11-30T03:54:36.822Z,0
2017-11-30T03:55:47.136Z,0
2017-11-30T03:56:57.690Z,0
2017-11-30T03:58:07.976Z,0
2017-11-30T03:59:18.915Z,0
2017-11-30T04:00:28.820Z,0
2017-11-30T04:01:39.325Z,0
2017-11-30T04:02:49.748Z,0
2017-11-30T04:04:00.054Z,0
2017-11-30T04:05:11.289Z,0
2017-11-30T04:06:22.684Z,0
2017-11-30T04:07:33.266Z,0
2017-11-30T04:08:43.277Z,0
2017-11-30T04:09:53.577Z,0
2017-11-30T04:11:04.592Z,0
2017-11-30T04:12:14.915Z,0
2017-11-30T04:13:25.537Z,0
2017-11-30T04:14:35.648Z,0
2017-11-30T04:15:45.545Z,0
2017-11-30T04:16:55.805Z,0
2017-11-30T04:18:06.116Z,0
2017-11-30T04:19:16.648Z,0
2017-11-30T04:20:27.642Z,0
2017-11-30T04:21:37.978Z,0
2017-11-30T04:22:48.288Z,0
2017-11-30T04:23:58.667Z,0
2017-11-30T04:25:09.169Z,0
2017-11-30T04:26:19.497Z,0
2017-11-30T04:27:29.759Z,0
2017-11-30T04:28:40.918Z,0
2017-11-30T04:29:51.153Z,0
2017-11-30T04:31:01.372Z,0
2017-11-30T04:32:11.671Z,0
2017-11-30T04:33:22.024Z,0
2017-11-30T04:34:32.318Z,0
2017-11-30T04:35:42.303Z,0
2017-11-30T04:36:52.593Z,0
2017-11-30T04:38:04.306Z,0
2017-11-30T04:39:14.720Z,0
2017-11-30T04:40:25.122Z,0
2017-11-30T04:41:34.766Z,0
2017-11-30T04:42:44.981Z,0
2017-11-30T04:43:55.534Z,0
2017-11-30T04:45:05.786Z,0
2017-11-30T04:46:16.076Z,0
2017-11-30T04:47:26.458Z,0
2017-11-30T04:48:37.717Z,0
2017-11-30T04:49:48.037Z,0
2017-11-30T04:50:58.878Z,0
2017-11-30T04:52:10.041Z,0
2017-11-30T04:53:21.312Z,0
2017-11-30T04:54:31.324Z,0
2017-11-30T04:55:41.795Z,0
2017-11-30T04:56:52.563Z,0
2017-11-30T04:58:02.855Z,0
2017-11-30T04:59:14.092Z,0
2017-11-30T05:00:24.139Z,0
2017-11-30T05:01:34.633Z,0
2017-11-30T05:02:46.335Z,0
2017-11-30T05:03:56.611Z,0
2017-11-30T05:05:06.759Z,0
2017-11-30T05:06:17.118Z,0
2017-11-30T05:07:27.122Z,0
2017-11-30T05:08:36.860Z,0
2017-11-30T05:09:47.481Z,0
2017-11-30T05:10:57.569Z,0
2017-11-30T05:12:07.908Z,0
2017-11-30T05:13:18.236Z,0
2017-11-30T05:14:28.326Z,0
2017-11-30T05:15:38.278Z,0
2017-11-30T05:16:49.429Z,0
2017-11-30T05:17:59.858Z,0
2017-11-30T05:19:10.419Z,0
2017-11-30T05:20:20.478Z,0
2017-11-30T05:21:31.264Z,0
2017-11-30T05:22:41.738Z,0
2017-11-30T05:23:52.564Z,0
2017-11-30T05:25:03.146Z,0
2017-11-30T05:26:13.869Z,0
2017-11-30T05:27:24.168Z,0
2017-11-30T05:28:34.662Z,0
2017-11-30T05:29:46.007Z,0
2017-11-30T05:30:56.744Z,0
2017-11-30T05:32:07.120Z,0
2017-11-30T05:33:17.445Z,0
2017-11-30T05:34:29.002Z,0
2017-11-30T05:35:39.592Z,0
2017-11-30T05:36:49.977Z,0
2017-11-30T05:38:00.463Z,0
2017-11-30T05:39:12.334Z,0
2017-11-30T05:40:22.615Z,0
2017-11-30T05:41:33.157Z,0
2017-11-30T05:42:43.423Z,0
2017-11-30T05:43:54.095Z,0
2017-11-30T05:45:05.073Z,0
2017-11-30T05:46:15.603Z,0
2017-11-30T05:47:26.400Z,0
2017-11-30T05:48:36.924Z,0
2017-11-30T05:49:48.023Z,0
2017-11-30T05:50:58.569Z,0
2017-11-30T05:52:09.951Z,0
2017-11-30T05:53:21.174Z,0
2017-11-30T05:54:31.509Z,0
2017-11-30T05:55:41.158Z,0
2017-11-30T05:56:51.487Z,0
2017-11-30T05:58:02.426Z,0
2017-11-30T05:59:12.939Z,0
2017-11-30T06:00:23.435Z,0
2017-11-30T06:01:33.718Z,0
2017-11-30T06:02:43.778Z,0
2017-11-30T06:03:53.738Z,0
2017-11-30T06:05:03.804Z,0
2017-11-30T06:06:14.401Z,0
2017-11-30T06:07:24.841Z,0
2017-11-30T06:08:34.848Z,0
2017-11-30T06:09:45.259Z,0
2017-11-30T06:10:55.527Z,0
2017-11-30T06:12:07.083Z,0
2017-11-30T06:13:17.444Z,0
2017-11-30T06:14:27.754Z,0
2017-11-30T06:15:38.268Z,0
2017-11-30T06:16:48.368Z,0
2017-11-30T06:17:59.481Z,0
2017-11-30T06:19:09.975Z,0
2017-11-30T06:20:20.499Z,0
2017-11-30T06:21:30.510Z,0
2017-11-30T06:22:40.813Z,0
2017-11-30T06:23:51.125Z,0
2017-11-30T06:25:01.459Z,0
2017-11-30T06:26:11.885Z,0
2017-11-30T06:27:22.369Z,0
2017-11-30T06:28:32.203Z,0
2017-11-30T06:29:45.526Z,0
2017-11-30T06:30:56.514Z,0
2017-11-30T06:32:07.336Z,0
2017-11-30T06:33:17.605Z,0
2017-11-30T06:34:27.847Z,0
2017-11-30T06:35:38.800Z,0
2017-11-30T06:36:49.476Z,0
2017-11-30T06:37:59.518Z,0
2017-11-30T06:39:09.653Z,0
2017-11-30T06:40:19.988Z,0
2017-11-30T06:41:30.877Z,0
2017-11-30T06:42:41.397Z,0
2017-11-30T06:43:52.366Z,0
2017-11-30T06:45:02.787Z,0
2017-11-30T06:46:13.108Z,0
2017-11-30T06:47:23.269Z,0
2017-11-30T06:48:33.863Z,0
2017-11-30T06:49:45.611Z,0
2017-11-30T06:50:55.971Z,5
2017-11-30T06:52:06.313Z,5
2017-11-30T06:53:16.354Z,5
2017-11-30T06:54:26.895Z,5
2017-11-30T06:55:37.398Z,5
2017-11-30T06:56:47.948Z,5
2017-11-30T06:57:58.226Z,5
2017-11-30T06:59:08.719Z,10
2017-11-30T07:00:19.380Z,10
2017-11-30T07:01:29.664Z,10
2017-11-30T07:02:39.952Z,10
2017-11-30T07:03:50.543Z,10
2017-11-30T07:05:00.827Z,15
2017-11-30T07:06:11.096Z,15
2017-11-30T07:07:21.505Z,15
2017-11-30T07:08:31.812Z,15
2017-11-30T07:09:42.184Z,20
2017-11-30T07:10:52.496Z,20
2017-11-30T07:12:02.799Z,20
2017-11-30T07:13:13.077Z,20
2017-11-30T07:14:23.526Z,25
2017-11-30T07:15:33.862Z,25
2017-11-30T07:16:44.192Z,25
2017-11-30T07:17:54.525Z,30
2017-11-30T07:19:04.918Z,30
2017-11-30T07:20:14.878Z,35
2017-11-30T07:21:25.200Z,35
2017-11-30T07:22:35.594Z,35
2017-11-30T07:23:45.857Z,40
2017-11-30T07:24:55.764Z,40
2017-11-30T07:26:05.809Z,40
2017-11-30T07:27:16.121Z,40
2017-11-30T07:28:25.896Z,45
2017-11-30T07:29:36.176Z,45
2017-11-30T07:30:46.185Z,45
2017-11-30T07:31:56.490Z,45
2017-11-30T07:33:06.857Z,50
2017-11-30T07:34:17.235Z,50
2017-11-30T07:35:27.227Z,55
2017-11-30T07:36:37.500Z,60
2017-11-30T07:37:47.139Z,65
2017-11-30T07:38:57.713Z,75
2017-11-30T07:40:08.042Z,75
2017-11-30T07:41:18.180Z,80
2017-11-30T07:42:28.504Z,85
2017-11-30T07:43:38.503Z,90
2017-11-30T07:44:48.894Z,95
2017-11-30T07:45:59.269Z,100
2017-11-30T07:47:09.539Z,100
2017-11-30T07:48:19.310Z,105
2017-11-30T07:49:29.278Z,105
2017-11-30T07:50:39.567Z,105
2017-11-30T07:51:49.893Z,105
2017-11-30T07:52:59.872Z,105
2017-11-30T07:54:10.167Z,105
2017-11-30T07:55:20.446Z,110
2017-11-30T07:56:30.489Z,110
2017-11-30T07:57:40.509Z,115
2017-11-30T07:58:51.079Z,120
2017-11-30T08:00:01.705Z,120
2017-11-30T08:01:12.016Z,120
2017-11-30T08:02:22.116Z,125
2017-11-30T08:03:32.040Z,130
2017-11-30T08:04:42.364Z,130
2017-11-30T08:06:24.243Z,135
2017-11-30T08:07:34.582Z,135
2017-11-30T08:08:44.874Z,140
2017-11-30T08:09:55.193Z,140
2017-11-30T08:11:05.536Z,135
2017-11-30T08:12:15.844Z,135
2017-11-30T08:13:26.149Z,130
2017-11-30T08:14:36.180Z,125
2017-11-30T08:15:46.504Z,120
2017-11-30T08:16:56.511Z,110
2017-11-30T08:18:07.022Z,110
2017-11-30T08:19:17.213Z,110
2017-11-30T08:20:27.569Z,110
2017-11-30T08:21:37.845Z,110
2017-11-30T08:22:48.232Z,110
2017-11-30T08:23:58.533Z,110
2017-11-30T08:25:08.843Z,115
2017-11-30T08:26:19.184Z,125
2017-11-30T08:27:29.488Z,115
2017-11-30T08:28:39.512Z,120
2017-11-30T08:29:49.874Z,140
2017-11-30T08:31:00.431Z,135
2017-11-30T08:32:10.787Z,160
2017-11-30T08:33:21.168Z,160
2017-11-30T08:34:31.567Z,155
2017-11-30T08:35:41.856Z,155
2017-11-30T08:36:51.510Z,155
2017-11-30T08:38:01.835Z,160
2017-11-30T08:39:11.950Z,170
2017-11-30T08:40:22.276Z,180
2017-11-30T08:41:32.665Z,210
2017-11-30T08:42:42.955Z,215
2017-11-30T08:43:53.286Z,230
2017-11-30T08:45:03.367Z,235
2017-11-30T08:46:13.713Z,225
2017-11-30T08:47:23.721Z,205
2017-11-30T08:48:34.015Z,185
2017-11-30T08:49:43.944Z,175
2017-11-30T08:50:53.971Z,185
2017-11-30T08:52:04.259Z,165
2017-11-30T08:53:13.957Z,170
2017-11-30T08:54:24.093Z,175
2017-11-30T08:55:34.401Z,200
2017-11-30T08:56:44.711Z,220
2017-11-30T08:57:55.030Z,220
2017-11-30T08:59:05.060Z,225
2017-11-30T09:00:15.001Z,220
2017-11-30T09:01:25.428Z,220
2017-11-30T09:02:35.826Z,220
2017-11-30T09:03:46.187Z,220
2017-11-30T09:04:56.116Z,220
2017-11-30T09:06:06.198Z,225
2017-11-30T09:07:16.271Z,225
2017-11-30T09:08:26.587Z,225
2017-11-30T09:09:37.118Z,225
2017-11-30T09:10:47.275Z,225
2017-11-30T09:11:57.650Z,230
2017-11-30T09:13:07.764Z,230
2017-11-30T09:14:18.092Z,235
2017-11-30T09:15:28.148Z,235
2017-11-30T09:16:52.927Z,245
2017-11-30T09:18:03.337Z,250
2017-11-30T09:19:13.668Z,260
2017-11-30T09:20:24.000Z,260
2017-11-30T09:21:34.350Z,260
2017-11-30T09:22:44.663Z,255
2017-11-30T09:23:54.955Z,255
2017-11-30T09:25:05.315Z,255
2017-11-30T09:26:15.852Z,260
2017-11-30T09:27:26.124Z,265
2017-11-30T09:28:35.817Z,275
2017-11-30T09:29:45.825Z,280
2017-11-30T09:30:55.762Z,285
2017-11-30T09:32:06.339Z,290
2017-11-30T09:33:16.640Z,285
2017-11-30T09:34:26.971Z,285
2017-11-30T09:35:37.321Z,290
2017-11-30T09:36:46.820Z,305
2017-11-30T09:37:56.962Z,300
2017-11-30T09:39:06.895Z,305
2017-11-30T09:40:17.217Z,320
2017-11-30T09:41:27.555Z,335
2017-11-30T09:42:37.514Z,355
2017-11-30T09:43:48.098Z,370
2017-11-30T09:44:58.409Z,375
2017-11-30T09:46:08.761Z,375
2017-11-30T09:47:19.092Z,440
2017-11-30T09:48:29.404Z,510
2017-11-30T09:49:39.718Z,620
2017-11-30T09:50:50.121Z,705
2017-11-30T09:52:00.532Z,640
2017-11-30T09:53:10.882Z,415
2017-11-30T09:54:21.480Z,415
2017-11-30T09:55:31.780Z,545
2017-11-30T09:56:42.098Z,500
2017-11-30T09:57:52.478Z,450
2017-11-30T09:59:02.915Z,410
2017-11-30T10:00:13.253Z,380
2017-11-30T10:01:23.811Z,350
2017-11-30T10:02:34.139Z,320
2017-11-30T10:03:44.497Z,290
2017-11-30T10:04:54.822Z,285
2017-11-30T10:06:05.285Z,280
2017-11-30T10:07:17.079Z,275
2017-11-30T10:08:27.366Z,285
2017-11-30T10:09:37.375Z,285
2017-11-30T10:10:47.842Z,285
2017-11-30T10:11:58.106Z,285
2017-11-30T10:13:09.047Z,275
2017-11-30T10:14:19.630Z,265
2017-11-30T10:15:30.137Z,275
2017-11-30T10:16:39.944Z,310
2017-11-30T10:17:50.385Z,345
2017-11-30T10:19:00.685Z,375
2017-11-30T10:20:12.051Z,300
2017-11-30T10:21:22.493Z,300
2017-11-30T10:22:32.550Z,330
2017-11-30T10:23:43.005Z,340
2017-11-30T10:24:54.287Z,360
2017-11-30T10:26:04.813Z,400
2017-11-30T10:27:15.702Z,430
2017-11-30T10:28:26.441Z,485
2017-11-30T10:29:36.777Z,550
2017-11-30T10:30:47.006Z,470
2017-11-30T10:31:57.542Z,405
2017-11-30T10:33:07.858Z,365
2017-11-30T10:34:18.057Z,365
2017-11-30T10:35:28.614Z,535
2017-11-30T10:36:38.917Z,485
2017-11-30T10:37:49.240Z,470
2017-11-30T10:38:59.937Z,460
2017-11-30T10:40:10.411Z,355
2017-11-30T10:41:20.610Z,340
2017-11-30T10:42:31.191Z,265
2017-11-30T10:43:41.695Z,235
2017-11-30T10:44:52.005Z,220
2017-11-30T10:46:02.301Z,205
2017-11-30T10:47:12.333Z,195
2017-11-30T10:48:22.401Z,195
2017-11-30T10:49:32.724Z,195
2017-11-30T10:50:42.540Z,200
2017-11-30T10:51:53.482Z,200
2017-11-30T10:53:03.935Z,200
2017-11-30T10:54:14.256Z,215
2017-11-30T10:55:24.737Z,215
2017-11-30T10:56:34.962Z,205
2017-11-30T10:57:45.259Z,210
2017-11-30T10:58:55.138Z,225
2017-11-30T11:00:05.192Z,220
2017-11-30T11:01:15.562Z,195
2017-11-30T11:02:25.479Z,185
2017-11-30T11:03:35.977Z,160
2017-11-30T11:04:46.057Z,145
2017-11-30T11:05:56.412Z,140
2017-11-30T11:07:06.430Z,130
2017-11-30T11:08:16.219Z,125
2017-11-30T11:09:26.202Z,120
2017-11-30T11:10:36.230Z,115
2017-11-30T11:11:46.764Z,115
2017-11-30T11:12:57.071Z,125
2017-11-30T11:14:07.446Z,120
2017-11-30T11:15:17.760Z,125
2017-11-30T11:16:28.299Z,135
2017-11-30T11:17:38.259Z,145
2017-11-30T11:18:48.297Z,145
2017-11-30T11:19:58.623Z,145
2017-11-30T11:21:08.941Z,145
2017-11-30T11:22:18.940Z,145
2017-11-30T11:23:28.968Z,145
2017-11-30T11:24:42.008Z,140
2017-11-30T11:25:52.915Z,125
2017-11-30T11:27:02.933Z,120
2017-11-30T11:28:13.252Z,125
2017-11-30T11:29:23.305Z,120
2017-11-30T11:30:33.411Z,125
2017-11-30T11:31:43.439Z,120
2017-11-30T11:32:53.485Z,125
2017-11-30T11:34:03.761Z,125
2017-11-30T11:35:14.045Z,130
2017-11-30T11:36:24.364Z,145
2017-11-30T11:37:34.712Z,150
2017-11-30T11:38:45.003Z,150
2017-11-30T11:39:55.302Z,155
2017-11-30T11:41:05.630Z,145
2017-11-30T11:42:16.138Z,130
2017-11-30T11:43:26.671Z,135
2017-11-30T11:44:37.033Z,140
2017-11-30T11:45:47.031Z,135
2017-11-30T11:46:57.327Z,120
2017-11-30T11:48:07.368Z,120
2017-11-30T11:49:17.681Z,120
2017-11-30T11:50:27.988Z,130
2017-11-30T11:51:38.328Z,145
2017-11-30T11:52:48.680Z,160
2017-11-30T11:53:58.446Z,160
2017-11-30T11:55:08.784Z,170
2017-11-30T11:56:19.581Z,200
2017-11-30T11:57:29.988Z,240
2017-11-30T11:58:40.005Z,300
2017-11-30T11:59:50.310Z,375
2017-11-30T12:01:00.654Z,450
2017-11-30T12:02:10.712Z,460
2017-11-30T12:03:21.177Z,405
2017-11-30T12:04:31.917Z,350
2017-11-30T12:05:43.503Z,300
2017-11-30T12:06:54.964Z,260
2017-11-30T12:08:05.018Z,235
2017-11-30T12:09:15.096Z,225
2017-11-30T12:10:25.131Z,245
2017-11-30T12:11:35.696Z,285
2017-11-30T12:12:46.628Z,295
2017-11-30T12:13:56.891Z,270
2017-11-30T12:15:07.321Z,255
2017-11-30T12:16:17.820Z,260
2017-11-30T12:17:27.736Z,290
2017-11-30T12:18:38.688Z,300
2017-11-30T12:19:50.355Z,305
2017-11-30T12:21:00.917Z,295
2017-11-30T12:22:11.423Z,280
2017-11-30T12:23:22.022Z,255
2017-11-30T12:24:33.988Z,240
2017-11-30T12:25:44.255Z,200
2017-11-30T12:26:57.905Z,170
2017-11-30T12:28:11.759Z,155
2017-11-30T12:29:22.361Z,150
2017-11-30T12:30:32.772Z,150
2017-11-30T12:31:43.648Z,155
2017-11-30T12:32:54.746Z,160
2017-11-30T12:34:04.760Z,160
2017-11-30T12:35:15.020Z,170
2017-11-30T12:36:25.946Z,170
2017-11-30T12:37:36.259Z,180
2017-11-30T12:38:48.227Z,180
2017-11-30T12:39:59.502Z,175
2017-11-30T12:41:10.864Z,175
2017-11-30T12:42:21.640Z,170
2017-11-30T12:43:32.297Z,170
2017-11-30T12:44:42.927Z,170
2017-11-30T12:45:52.972Z,170
2017-11-30T12:47:04.992Z,155
2017-11-30T12:48:16.783Z,150
2017-11-30T12:49:28.277Z,140
2017-11-30T12:50:38.743Z,135
2017-11-30T12:51:49.319Z,125
2017-11-30T12:52:59.723Z,125
2017-11-30T12:54:10.826Z,120
2017-11-30T12:55:23.043Z,115
2017-11-30T12:56:34.932Z,105
2017-11-30T12:57:45.873Z,95
2017-11-30T12:58:57.145Z,90
2017-11-30T13:00:07.658Z,90
2017-11-30T13:01:19.266Z,90
2017-11-30T13:02:29.921Z,80
2017-11-30T13:03:40.199Z,80
2017-11-30T13:04:50.870Z,70
2017-11-30T13:06:00.548Z,65
2017-11-30T13:07:10.892Z,60
2017-11-30T13:08:20.942Z,60
2017-11-30T13:09:31.228Z,55
2017-11-30T13:10:40.982Z,55
2017-11-30T13:11:51.449Z,55
2017-11-30T13:13:01.726Z,55
2017-11-30T13:14:12.023Z,55
2017-11-30T13:15:22.326Z,50
2017-11-30T13:16:32.467Z,50
2017-11-30T13:17:42.558Z,50
2017-11-30T13:18:53.087Z,55
2017-11-30T13:20:03.417Z,55
2017-11-30T13:21:13.536Z,55
2017-11-30T13:22:23.604Z,55
2017-11-30T13:23:34.022Z,55
2017-11-30T13:24:44.406Z,55
2017-11-30T13:25:54.685Z,60
2017-11-30T13:27:37.035Z,70
2017-11-30T13:28:47.106Z,70
2017-11-30T13:29:57.143Z,70
2017-11-30T13:31:07.173Z,70
2017-11-30T13:32:17.553Z,70
2017-11-30T13:33:27.877Z,70
2017-11-30T13:34:38.362Z,65
2017-11-30T13:35:48.724Z,60
2017-11-30T13:36:58.575Z,55
2017-11-30T13:38:08.905Z,55
2017-11-30T13:39:19.268Z,55
2017-11-30T13:40:29.301Z,55
2017-11-30T13:41:39.572Z,60
2017-11-30T13:42:50.005Z,60
2017-11-30T13:44:00.492Z,65
2017-11-30T13:45:10.863Z,70
2017-11-30T13:46:21.839Z,75
2017-11-30T13:47:31.899Z,75
2017-11-30T13:48:42.053Z,75
2017-11-30T13:49:52.272Z,75
2017-11-30T13:51:02.555Z,75
2017-11-30T13:52:12.829Z,75
2017-11-30T13:53:23.100Z,75
2017-11-30T13:54:33.426Z,80
2017-11-30T13:55:43.796Z,85
2017-11-30T13:56:54.102Z,95
2017-11-30T13:58:04.438Z,100
2017-11-30T13:59:14.464Z,100
2017-11-30T14:00:25.766Z,100
2017-11-30T14:01:35.854Z,95
2017-11-30T14:02:46.167Z,90
2017-11-30T14:03:56.481Z,80
2017-11-30T14:05:07.019Z,70
2017-11-30T14:06:16.677Z,65
2017-11-30T14:07:27.231Z,55
2017-11-30T14:08:37.531Z,55
2017-11-30T14:09:47.826Z,55
2017-11-30T14:10:58.562Z,55
2017-11-30T14:12:08.842Z,55
2017-11-30T14:13:19.207Z,60
2017-11-30T14:14:29.530Z,60
2017-11-30T14:15:39.869Z,60
2017-11-30T14:16:50.434Z,60
2017-11-30T14:18:00.720Z,65
2017-11-30T14:19:11.029Z,65
2017-11-30T14:20:20.922Z,65
2017-11-30T14:21:31.480Z,65
2017-11-30T14:22:41.782Z,65
2017-11-30T14:23:52.135Z,65
2017-11-30T14:25:02.488Z,60
2017-11-30T14:26:12.738Z,60
2017-11-30T14:27:23.009Z,60
2017-11-30T14:28:35.854Z,55
2017-11-30T14:29:47.637Z,50
2017-11-30T14:30:58.001Z,45
2017-11-30T14:32:08.359Z,45
2017-11-30T14:33:18.278Z,45
2017-11-30T14:34:28.390Z,40
2017-11-30T14:35:38.474Z,35
2017-11-30T14:36:48.490Z,35
2017-11-30T14:37:58.529Z,30
2017-11-30T14:39:08.548Z,30
2017-11-30T14:40:18.904Z,25
2017-11-30T14:41:28.951Z,25
2017-11-30T14:42:38.956Z,20
2017-11-30T14:43:49.277Z,20
2017-11-30T14:44:59.575Z,20
2017-11-30T14:46:09.519Z,20
2017-11-30T14:47:19.769Z,20
2017-11-30T14:48:30.091Z,20
2017-11-30T14:49:40.451Z,20
2017-11-30T14:50:50.770Z,15
2017-11-30T14:52:01.067Z,15
2017-11-30T14:53:11.361Z,15
2017-11-30T14:54:21.428Z,15
2017-11-30T14:55:31.721Z,15
2017-11-30T14:56:42.004Z,10
2017-11-30T14:57:51.775Z,10
2017-11-30T14:59:02.134Z,10
2017-11-30T15:00:12.665Z,10
2017-11-30T15:01:23.073Z,10
2017-11-30T15:02:32.975Z,5
2017-11-30T15:03:43.274Z,5
2017-11-30T15:04:53.577Z,5
2017-11-30T15:06:03.890Z,5
2017-11-30T15:07:14.290Z,5
2017-11-30T15:08:24.600Z,5
2017-11-30T15:09:34.589Z,5
2017-11-30T15:10:44.918Z,5
2017-11-30T15:11:55.232Z,5
2017-11-30T15:13:05.494Z,5
2017-11-30T15:14:16.038Z,0
2017-11-30T15:15:26.336Z,0
2017-11-30T15:16:36.684Z,0
2017-11-30T15:17:47.004Z,0
2017-11-30T15:18:57.382Z,0
2017-11-30T15:20:08.612Z,0
2017-11-30T15:21:18.920Z,0
2017-11-30T15:22:29.208Z,0
2017-11-30T15:23:39.487Z,0
2017-11-30T15:24:49.554Z,0
2017-11-30T15:25:59.852Z,0
2017-11-30T15:27:10.134Z,0
2017-11-30T15:28:20.136Z,0
2017-11-30T15:29:30.175Z,0
2017-11-30T15:30:40.463Z,0
2017-11-30T15:31:50.780Z,0
2017-11-30T15:33:01.148Z,0
2017-11-30T15:34:11.443Z,0
2017-11-30T15:35:21.723Z,0
2017-11-30T15:36:35.939Z,0
2017-11-30T15:37:49.156Z,0
2017-11-30T15:39:01.351Z,0
2017-11-30T15:41:38.471Z,0
2017-11-30T15:42:49.211Z,0
2017-11-30T15:43:59.794Z,0
2017-11-30T15:45:10.152Z,0
2017-11-30T15:46:20.050Z,0
2017-11-30T15:47:30.107Z,0
2017-11-30T15:48:40.035Z,0
2017-11-30T15:49:50.773Z,0
2017-11-30T15:51:01.189Z,0
2017-11-30T15:52:11.242Z,0
2017-11-30T15:53:21.579Z,0
2017-11-30T15:54:31.954Z,0
2017-11-30T15:55:42.162Z,0
2017-11-30T15:56:52.496Z,0
2017-11-30T15:58:03.083Z,0
2017-11-30T15:59:13.087Z,0
2017-11-30T16:00:23.267Z,0
2017-11-30T16:01:33.242Z,0
2017-11-30T16:02:43.264Z,0
2017-11-30T16:03:53.272Z,0
2017-11-30T16:05:03.595Z,0
2017-11-30T16:06:13.611Z,0
2017-11-30T16:07:23.929Z,0
2017-11-30T16:08:34.439Z,0
2017-11-30T16:09:44.826Z,0
2017-11-30T16:10:55.187Z,0
2017-11-30T16:12:05.451Z,0
2017-11-30T16:13:15.907Z,0
2017-11-30T16:14:25.928Z,0
2017-11-30T16:15:36.211Z,0
2017-11-30T16:16:46.572Z,0
2017-11-30T16:17:56.519Z,0
2017-11-30T16:19:06.562Z,0
2017-11-30T16:20:16.451Z,0
2017-11-30T16:21:26.790Z,0
2017-11-30T16:22:37.156Z,0
2017-11-30T16:23:47.469Z,0
2017-11-30T16:24:57.758Z,0
2017-11-30T16:26:08.073Z,0
2017-11-30T16:27:18.162Z,0
2017-11-30T16:28:29.288Z,0
2017-11-30T16:29:39.573Z,0
2017-11-30T16:30:49.624Z,0
2017-11-30T16:32:00.097Z,0
2017-11-30T16:33:10.426Z,0
2017-11-30T16:34:20.964Z,0
2017-11-30T16:35:31.372Z,0
2017-11-30T16:36:41.749Z,0
2017-11-30T16:37:51.715Z,0
2017-11-30T16:39:02.025Z,0
2017-11-30T16:40:12.101Z,0
2017-11-30T16:41:22.690Z,0
2017-11-30T16:42:33.061Z,0
2017-11-30T16:43:43.245Z,0
2017-11-30T16:44:53.732Z,0
2017-11-30T16:46:03.789Z,0
2017-11-30T16:47:14.183Z,0
2017-11-30T16:48:24.745Z,0
2017-11-30T16:49:35.114Z,0
2017-11-30T16:50:45.514Z,0
2017-11-30T16:51:55.823Z,0
2017-11-30T16:53:05.904Z,0
2017-11-30T16:54:16.222Z,0
2017-11-30T16:55:26.628Z,0